createdAt,value
2017-10-24T00:00:33.823Z,12.00
2017-10-24T00:03:00.566Z,12.00
2017-10-24T00:05:27.277Z,12.00
2017-10-24T00:07:53.240Z,12.00
2017-10-24T00:10:19.237Z,12.00
2017-10-24T00:12:45.930Z,12.00
2017-10-24T00:15:11.904Z,12.00
2017-10-24T00:17:38.926Z,12.00
2017-10-24T00:20:04.903Z,12.00
2017-10-24T00:22:30.881Z,11.90
2017-10-24T00:24:57.634Z,12.00
2017-10-24T00:27:23.593Z,12.00
2017-10-24T00:29:49.564Z,12.00
2017-10-24T00:32:16.310Z,12.10
2017-10-24T00:34:42.266Z,12.10
2017-10-24T00:37:08.629Z,12.10
2017-10-24T00:39:34.616Z,12.20
2017-10-24T00:42:00.576Z,12.10
2017-10-24T00:44:27.501Z,12.20
2017-10-24T00:46:54.236Z,12.20
2017-10-24T00:49:20.202Z,12.20
2017-10-24T00:51:46.187Z,12.30
2017-10-24T00:54:12.174Z,12.30
2017-10-24T00:56:38.165Z,12.20
2017-10-24T00:59:04.206Z,12.20
2017-10-24T01:01:30.169Z,12.20
2017-10-24T01:03:56.434Z,12.30
2017-10-24T01:06:22.433Z,12.30
2017-10-24T01:08:49.163Z,12.20
2017-10-24T01:11:16.340Z,12.10
2017-10-24T01:13:42.350Z,12.10
2017-10-24T01:16:09.057Z,12.00
2017-10-24T01:18:35.045Z,12.00
2017-10-24T01:21:01.054Z,12.10
2017-10-24T01:23:27.001Z,12.10
2017-10-24T01:25:52.962Z,12.20
2017-10-24T01:28:19.669Z,12.20
2017-10-24T01:30:45.636Z,12.20
2017-10-24T01:33:11.933Z,12.20
2017-10-24T01:35:37.910Z,12.10
2017-10-24T01:38:03.893Z,12.20
2017-10-24T01:40:30.901Z,12.10
2017-10-24T01:42:56.869Z,12.10
2017-10-24T01:45:22.842Z,12.10
2017-10-24T01:47:48.854Z,12.20
2017-10-24T01:50:14.818Z,12.20
2017-10-24T01:52:41.540Z,12.20
2017-10-24T01:55:08.650Z,12.20
2017-10-24T01:57:34.601Z,12.20
2017-10-24T02:00:00.755Z,12.20
2017-10-24T02:02:26.741Z,12.20
2017-10-24T02:04:53.458Z,12.20
2017-10-24T02:07:19.446Z,12.20
2017-10-24T02:09:45.787Z,12.20
2017-10-24T02:12:11.762Z,12.30
2017-10-24T02:14:38.834Z,12.10
2017-10-24T02:17:04.822Z,12.20
2017-10-24T02:19:31.523Z,12.20
2017-10-24T02:21:57.482Z,12.20
2017-10-24T02:24:24.229Z,12.20
2017-10-24T02:26:50.941Z,12.20
2017-10-24T02:29:17.082Z,12.20
2017-10-24T02:31:43.817Z,12.10
2017-10-24T02:34:10.538Z,12.10
2017-10-24T02:36:36.506Z,12.10
2017-10-24T02:39:02.693Z,12.20
2017-10-24T02:41:28.649Z,12.20
2017-10-24T02:43:54.621Z,12.20
2017-10-24T02:46:20.594Z,12.20
2017-10-24T02:48:46.561Z,12.20
2017-10-24T02:51:12.521Z,12.20
2017-10-24T02:53:38.489Z,12.20
2017-10-24T02:56:04.470Z,12.30
2017-10-24T02:58:30.509Z,12.30
2017-10-24T03:00:56.475Z,12.20
2017-10-24T03:03:22.424Z,12.20
2017-10-24T03:05:48.658Z,12.30
2017-10-24T03:08:15.189Z,12.30
2017-10-24T03:10:41.156Z,12.30
2017-10-24T03:13:07.136Z,12.30
2017-10-24T03:15:40.169Z,12.30
2017-10-24T03:18:06.125Z,12.30
2017-10-24T03:20:32.874Z,12.30
2017-10-24T03:22:58.838Z,12.30
2017-10-24T03:25:24.797Z,12.20
2017-10-24T03:27:51.533Z,12.10
2017-10-24T03:30:18.241Z,12.20
2017-10-24T03:32:44.218Z,12.10
2017-10-24T03:35:10.205Z,12.20
2017-10-24T03:37:37.901Z,12.10
2017-10-24T03:40:03.874Z,12.10
2017-10-24T03:42:29.870Z,12.10
2017-10-24T03:44:55.833Z,12.10
2017-10-24T03:47:22.530Z,12.10
2017-10-24T03:49:48.514Z,12.10
2017-10-24T03:52:14.470Z,12.20
2017-10-24T03:54:40.431Z,12.10
2017-10-24T03:57:07.158Z,12.10
2017-10-24T03:59:33.850Z,12.10
2017-10-24T04:01:59.817Z,12.10
2017-10-24T04:04:26.570Z,12.00
2017-10-24T04:06:53.274Z,12.10
2017-10-24T04:09:19.616Z,12.10
2017-10-24T04:11:45.610Z,12.00
2017-10-24T04:14:11.582Z,12.00
2017-10-24T04:16:37.775Z,12.00
2017-10-24T04:19:03.732Z,12.10
2017-10-24T04:21:29.707Z,12.10
2017-10-24T04:23:55.949Z,12.10
2017-10-24T04:26:21.909Z,12.10
2017-10-24T04:28:47.889Z,12.00
2017-10-24T04:31:14.136Z,12.00
2017-10-24T04:33:40.849Z,12.00
2017-10-24T04:36:06.798Z,12.00
2017-10-24T04:38:32.786Z,12.10
2017-10-24T04:40:58.746Z,12.10
2017-10-24T04:43:24.714Z,12.20
2017-10-24T04:45:50.677Z,12.10
2017-10-24T04:48:16.628Z,12.00
2017-10-24T04:50:42.607Z,12.00
2017-10-24T04:53:09.315Z,12.00
2017-10-24T04:55:35.275Z,12.00
2017-10-24T04:58:01.285Z,11.90
2017-10-24T05:00:27.978Z,11.90
2017-10-24T05:02:53.950Z,11.90
2017-10-24T05:05:19.933Z,11.80
2017-10-24T05:07:46.327Z,11.80
2017-10-24T05:10:12.289Z,11.80
2017-10-24T05:12:38.283Z,11.90
2017-10-24T05:15:04.271Z,11.90
2017-10-24T05:17:30.237Z,11.90
2017-10-24T05:19:56.218Z,12.00
2017-10-24T05:22:22.194Z,11.90
2017-10-24T05:24:48.162Z,11.90
2017-10-24T05:27:14.122Z,11.90
2017-10-24T05:29:40.366Z,11.80
2017-10-24T05:32:07.072Z,11.70
2017-10-24T05:34:33.054Z,11.70
2017-10-24T05:36:59.303Z,11.90
2017-10-24T05:39:25.305Z,11.90
2017-10-24T05:41:51.286Z,11.80
2017-10-24T05:44:17.629Z,11.80
2017-10-24T05:46:44.349Z,11.80
2017-10-24T05:49:10.307Z,11.80
2017-10-24T05:51:36.481Z,11.70
2017-10-24T05:54:02.459Z,11.70
2017-10-24T05:56:28.413Z,11.70
2017-10-24T05:58:54.405Z,11.70
2017-10-24T06:01:20.365Z,11.70
2017-10-24T06:03:46.317Z,11.70
2017-10-24T06:06:13.021Z,11.70
2017-10-24T06:08:38.999Z,11.70
2017-10-24T06:11:05.183Z,11.70
2017-10-24T06:13:31.907Z,11.70
2017-10-24T06:15:57.867Z,11.70
2017-10-24T06:18:24.010Z,11.80
2017-10-24T06:20:49.991Z,11.80
2017-10-24T06:23:16.704Z,11.80
2017-10-24T06:25:43.057Z,11.80
2017-10-24T06:28:09.777Z,11.80
2017-10-24T06:30:35.735Z,11.70
2017-10-24T06:33:01.726Z,11.80
2017-10-24T06:35:27.684Z,11.90
2017-10-24T06:37:53.664Z,11.80
2017-10-24T06:40:19.643Z,11.80
2017-10-24T06:42:45.613Z,11.80
2017-10-24T06:45:12.342Z,11.80
2017-10-24T06:47:38.315Z,11.80
2017-10-24T06:50:04.279Z,11.80
2017-10-24T06:52:30.254Z,11.70
2017-10-24T06:54:56.426Z,11.70
2017-10-24T06:57:22.386Z,11.70
2017-10-24T06:59:48.377Z,11.70
2017-10-24T07:02:15.094Z,11.60
2017-10-24T07:04:41.062Z,11.60
2017-10-24T07:07:07.169Z,11.60
2017-10-24T07:09:33.873Z,11.60
2017-10-24T07:11:59.862Z,11.60
2017-10-24T07:14:25.863Z,11.60
2017-10-24T07:16:51.991Z,11.60
2017-10-24T07:19:17.953Z,11.70
2017-10-24T07:21:43.917Z,11.70
2017-10-24T07:24:09.918Z,11.70
2017-10-24T07:26:36.637Z,11.80
2017-10-24T07:29:02.597Z,11.80
2017-10-24T07:31:28.849Z,11.80
2017-10-24T07:33:54.814Z,11.70
2017-10-24T07:36:20.781Z,11.70
2017-10-24T07:38:46.781Z,11.70
2017-10-24T07:41:13.498Z,11.80
2017-10-24T07:43:39.469Z,11.70
2017-10-24T07:46:05.481Z,11.80
2017-10-24T07:48:31.445Z,11.80
2017-10-24T07:50:57.410Z,11.80
2017-10-24T07:53:23.394Z,11.70
2017-10-24T07:55:49.368Z,11.80
2017-10-24T07:58:15.538Z,11.70
2017-10-24T08:00:41.505Z,11.70
2017-10-24T08:03:07.486Z,11.60
2017-10-24T08:05:34.541Z,11.70
2017-10-24T08:08:01.259Z,11.70
2017-10-24T08:10:27.221Z,11.70
2017-10-24T08:12:53.604Z,11.60
2017-10-24T08:15:19.578Z,11.60
2017-10-24T08:17:45.538Z,11.60
2017-10-24T08:20:11.531Z,11.70
2017-10-24T08:22:37.492Z,11.80
2017-10-24T08:25:03.459Z,11.70
2017-10-24T08:27:29.445Z,11.80
2017-10-24T08:29:56.161Z,11.80
2017-10-24T08:32:22.127Z,11.80
2017-10-24T08:34:48.138Z,11.80
2017-10-24T08:37:14.089Z,11.80
2017-10-24T08:39:40.054Z,11.80
2017-10-24T08:42:06.120Z,11.80
2017-10-24T08:44:32.173Z,11.80
2017-10-24T08:46:58.142Z,11.70
2017-10-24T08:49:24.345Z,11.70
2017-10-24T08:51:50.297Z,11.70
2017-10-24T08:54:16.250Z,11.70
2017-10-24T08:56:42.274Z,11.80
2017-10-24T08:59:08.254Z,11.80
2017-10-24T09:01:34.243Z,11.80
2017-10-24T09:04:00.209Z,11.90
2017-10-24T09:06:41.087Z,11.90
2017-10-24T09:12:08.441Z,11.90
2017-10-24T09:14:34.441Z,11.90
2017-10-24T09:20:12.985Z,12.00
2017-10-24T09:22:38.961Z,12.00
2017-10-24T09:25:06.439Z,11.90
2017-10-24T09:27:33.169Z,11.90
2017-10-24T09:29:59.149Z,11.90
2017-10-24T09:32:36.112Z,12.00
2017-10-24T09:35:02.105Z,12.00
2017-10-24T09:37:29.237Z,12.10
2017-10-24T09:39:55.219Z,12.00
2017-10-24T09:42:21.203Z,12.10
2017-10-24T09:44:47.206Z,12.10
2017-10-24T09:47:13.944Z,12.10
2017-10-24T09:49:40.662Z,12.10
2017-10-24T09:52:06.642Z,12.10
2017-10-24T09:54:47.573Z,12.10
2017-10-24T09:57:14.317Z,12.20
2017-10-24T09:59:41.050Z,12.20
2017-10-24T10:02:07.770Z,12.20
2017-10-24T10:04:34.305Z,12.20
2017-10-24T10:07:00.269Z,12.20
2017-10-24T10:09:26.236Z,12.30
2017-10-24T10:11:52.242Z,12.20
2017-10-24T10:14:18.213Z,12.30
2017-10-24T10:16:44.946Z,12.30
2017-10-24T10:19:11.705Z,12.30
2017-10-24T10:21:37.677Z,12.30
2017-10-24T10:24:03.645Z,12.30
2017-10-24T10:26:29.639Z,12.40
2017-10-24T10:28:56.357Z,12.30
2017-10-24T10:31:22.342Z,12.30
2017-10-24T10:33:48.316Z,12.40
2017-10-24T10:36:15.021Z,12.40
2017-10-24T10:38:41.009Z,12.40
2017-10-24T10:41:06.974Z,12.30
2017-10-24T10:43:32.998Z,12.30
2017-10-24T10:45:59.248Z,12.40
2017-10-24T10:48:25.967Z,12.40
2017-10-24T10:50:51.926Z,12.40
2017-10-24T10:53:17.949Z,12.40
2017-10-24T10:55:43.929Z,12.50
2017-10-24T10:58:09.927Z,12.50
2017-10-24T11:00:35.918Z,12.50
2017-10-24T11:03:01.883Z,12.40
2017-10-24T11:05:27.845Z,12.40
2017-10-24T11:07:53.858Z,12.50
2017-10-24T11:10:19.819Z,12.50
2017-10-24T11:12:45.777Z,12.50
2017-10-24T11:15:11.813Z,12.50
2017-10-24T11:17:38.529Z,12.50
2017-10-24T11:20:04.486Z,12.50
2017-10-24T11:22:31.875Z,12.60
2017-10-24T11:24:57.854Z,12.60
2017-10-24T11:27:23.810Z,12.60
2017-10-24T11:29:49.969Z,12.60
2017-10-24T11:32:15.931Z,12.60
2017-10-24T11:34:41.893Z,12.60
2017-10-24T11:37:07.849Z,12.60
2017-10-24T11:39:34.574Z,12.60
2017-10-24T11:42:01.341Z,12.70
2017-10-24T11:44:27.297Z,12.70
2017-10-24T11:46:53.286Z,12.70
2017-10-24T11:49:19.290Z,12.70
2017-10-24T11:51:45.989Z,12.70
2017-10-24T11:54:11.959Z,12.70
2017-10-24T11:56:37.949Z,12.70
2017-10-24T11:59:04.721Z,12.70
2017-10-24T12:01:30.729Z,12.70
2017-10-24T12:03:57.449Z,12.70
2017-10-24T12:06:23.450Z,12.70
2017-10-24T12:08:49.421Z,12.70
2017-10-24T12:11:15.578Z,12.80
2017-10-24T12:13:41.545Z,12.80
2017-10-24T12:16:08.250Z,12.80
2017-10-24T12:18:34.229Z,12.80
2017-10-24T12:21:00.213Z,12.80
2017-10-24T12:23:27.780Z,12.80
2017-10-24T12:25:54.503Z,12.90
2017-10-24T12:28:21.209Z,12.90
2017-10-24T12:30:48.084Z,12.80
2017-10-24T12:33:14.806Z,12.90
2017-10-24T12:35:40.770Z,12.90
2017-10-24T12:38:06.878Z,12.90
2017-10-24T12:40:33.612Z,12.90
2017-10-24T12:43:00.337Z,12.80
2017-10-24T12:45:26.310Z,12.90
2017-10-24T12:47:52.596Z,12.90
2017-10-24T12:50:22.323Z,13.00
2017-10-24T12:52:48.306Z,13.00
2017-10-24T12:55:14.330Z,13.10
2017-10-24T12:57:41.273Z,13.10
2017-10-24T13:00:08.014Z,13.00
2017-10-24T13:02:34.272Z,13.00
2017-10-24T13:05:00.281Z,13.10
2017-10-24T13:07:27.009Z,13.10
2017-10-24T13:09:53.721Z,13.10
2017-10-24T13:12:20.582Z,13.10
2017-10-24T13:14:47.320Z,13.10
2017-10-24T13:17:14.042Z,13.10
2017-10-24T13:19:40.042Z,13.10
2017-10-24T13:22:06.014Z,13.10
2017-10-24T13:24:31.981Z,13.10
2017-10-24T13:26:57.970Z,13.10
2017-10-24T13:29:23.926Z,13.10
2017-10-24T13:31:49.901Z,13.10
2017-10-24T13:34:15.902Z,13.10
2017-10-24T13:36:42.610Z,13.20
2017-10-24T13:39:08.565Z,13.10
2017-10-24T13:41:35.311Z,13.20
2017-10-24T13:44:02.050Z,13.20
2017-10-24T13:46:28.030Z,13.20
2017-10-24T13:48:54.005Z,13.10
2017-10-24T13:51:19.961Z,13.10
2017-10-24T13:53:45.929Z,13.10
2017-10-24T13:56:12.626Z,13.20
2017-10-24T13:58:38.589Z,13.10
2017-10-24T14:01:04.597Z,13.20
2017-10-24T14:03:31.315Z,13.20
2017-10-24T14:06:03.497Z,13.20
2017-10-24T14:08:36.512Z,13.20
2017-10-24T14:11:02.484Z,13.20
2017-10-24T14:13:28.498Z,13.30
2017-10-24T14:15:54.754Z,13.30
2017-10-24T14:18:21.454Z,13.30
2017-10-24T14:20:47.421Z,13.20
2017-10-24T14:23:13.397Z,13.30
2017-10-24T14:25:39.352Z,13.30
2017-10-24T14:28:06.099Z,13.30
2017-10-24T14:30:32.074Z,13.30
2017-10-24T14:32:58.050Z,13.30
2017-10-24T14:35:24.303Z,13.30
2017-10-24T14:37:50.291Z,13.30
2017-10-24T14:40:16.253Z,13.30
2017-10-24T14:42:42.262Z,13.30
2017-10-24T14:45:08.240Z,13.30
2017-10-24T14:47:34.957Z,13.30
2017-10-24T14:50:01.223Z,13.30
2017-10-24T14:52:27.177Z,13.30
2017-10-24T14:54:53.173Z,13.30
2017-10-24T14:57:19.178Z,13.30
2017-10-24T14:59:45.161Z,13.30
2017-10-24T15:02:12.077Z,13.30
2017-10-24T15:04:38.047Z,13.30
2017-10-24T15:07:04.785Z,13.30
2017-10-24T15:09:31.510Z,13.30
2017-10-24T15:11:57.469Z,13.30
2017-10-24T15:14:23.764Z,13.40
2017-10-24T15:16:50.461Z,13.40
2017-10-24T15:19:16.764Z,13.40
2017-10-24T15:21:42.738Z,13.40
2017-10-24T15:24:08.729Z,13.30
2017-10-24T15:26:34.694Z,13.30
2017-10-24T15:29:01.413Z,13.30
2017-10-24T15:31:27.367Z,13.30
2017-10-24T15:33:53.344Z,13.30
2017-10-24T15:36:19.330Z,13.40
2017-10-24T15:38:45.293Z,13.40
2017-10-24T15:41:11.263Z,13.40
2017-10-24T15:43:37.231Z,13.50
2017-10-24T15:46:03.199Z,13.40
2017-10-24T15:48:29.462Z,13.50
2017-10-24T15:50:55.453Z,13.50
2017-10-24T15:53:21.432Z,13.50
2017-10-24T15:55:48.433Z,13.50
2017-10-24T15:58:14.413Z,13.50
2017-10-24T16:00:41.134Z,13.50
2017-10-24T16:03:08.178Z,13.50
2017-10-24T16:05:34.143Z,13.50
2017-10-24T16:08:00.103Z,13.50
2017-10-24T16:10:26.134Z,13.60
2017-10-24T16:12:52.089Z,13.60
2017-10-24T16:15:18.061Z,13.60
2017-10-24T16:17:44.074Z,13.70
2017-10-24T16:20:10.050Z,13.60
2017-10-24T16:22:36.006Z,13.70
2017-10-24T16:25:01.977Z,13.70
2017-10-24T16:27:28.674Z,13.70
2017-10-24T16:29:54.661Z,13.70
2017-10-24T16:32:20.623Z,13.70
2017-10-24T16:34:46.588Z,13.70
2017-10-24T16:37:12.550Z,13.70
2017-10-24T16:39:38.532Z,13.80
2017-10-24T16:42:04.485Z,13.80
2017-10-24T16:44:30.480Z,13.80
2017-10-24T16:46:56.661Z,13.90
2017-10-24T16:49:22.613Z,13.90
2017-10-24T16:51:48.570Z,13.90
2017-10-24T16:54:14.571Z,13.90
2017-10-24T16:56:40.529Z,14.00
2017-10-24T16:59:06.502Z,13.90
2017-10-24T17:01:39.441Z,14.00
2017-10-24T17:04:05.422Z,13.90
2017-10-24T17:06:31.390Z,13.90
2017-10-24T17:08:57.740Z,13.90
2017-10-24T17:11:23.725Z,14.00
2017-10-24T17:13:49.691Z,14.00
2017-10-24T17:16:15.674Z,13.90
2017-10-24T17:18:41.648Z,13.90
2017-10-24T17:21:07.638Z,14.00
2017-10-24T17:23:34.357Z,14.00
2017-10-24T17:26:01.084Z,14.00
2017-10-24T17:28:27.049Z,14.00
2017-10-24T17:30:53.250Z,14.10
2017-10-24T17:33:19.948Z,14.10
2017-10-24T17:35:45.938Z,14.10
2017-10-24T17:38:11.930Z,14.10
2017-10-24T17:40:38.645Z,14.10
2017-10-24T17:43:04.633Z,14.10
2017-10-24T17:45:30.653Z,14.10
2017-10-24T17:47:56.620Z,14.10
2017-10-24T17:50:23.354Z,14.10
2017-10-24T17:52:50.401Z,14.20
2017-10-24T17:55:17.111Z,14.10
2017-10-24T17:57:43.079Z,14.10
2017-10-24T18:00:09.390Z,14.10
2017-10-24T18:02:36.101Z,14.20
2017-10-24T18:05:02.098Z,14.20
2017-10-24T18:07:28.101Z,14.20
2017-10-24T18:09:54.066Z,14.20
2017-10-24T18:12:20.037Z,14.20
2017-10-24T18:14:46.489Z,14.20
2017-10-24T18:17:12.456Z,14.20
2017-10-24T18:19:39.167Z,14.30
2017-10-24T18:22:05.422Z,14.30
2017-10-24T18:24:32.182Z,14.30
2017-10-24T18:26:58.147Z,14.30
2017-10-24T18:29:24.410Z,14.30
2017-10-24T18:31:51.105Z,14.30
2017-10-24T18:34:17.154Z,14.30
2017-10-24T18:36:43.154Z,14.30
2017-10-24T18:39:09.160Z,14.30
2017-10-24T18:41:35.135Z,14.30
2017-10-24T18:44:01.306Z,14.20
2017-10-24T18:46:27.282Z,14.30
2017-10-24T18:48:53.998Z,14.30
2017-10-24T18:51:20.161Z,14.30
2017-10-24T18:53:46.157Z,14.30
2017-10-24T18:56:12.869Z,14.30
2017-10-24T18:58:38.894Z,14.30
2017-10-24T19:01:04.861Z,14.30
2017-10-24T19:03:30.861Z,14.30
2017-10-24T19:05:58.104Z,14.30
2017-10-24T19:08:24.841Z,14.30
2017-10-24T19:10:51.578Z,14.30
2017-10-24T19:13:18.790Z,14.30
2017-10-24T19:15:52.336Z,14.30
2017-10-24T19:18:19.045Z,14.40
2017-10-24T19:20:45.022Z,14.40
2017-10-24T19:23:11.012Z,14.40
2017-10-24T19:25:37.712Z,14.40
2017-10-24T19:28:04.536Z,14.40
2017-10-24T19:30:30.513Z,14.40
2017-10-24T19:32:57.252Z,14.40
2017-10-24T19:35:23.992Z,14.40
2017-10-24T19:37:50.723Z,14.40
2017-10-24T19:40:17.446Z,14.40
2017-10-24T19:42:43.477Z,14.40
2017-10-24T19:45:10.213Z,14.40
2017-10-24T19:47:36.921Z,14.50
2017-10-24T19:50:02.901Z,14.50
2017-10-24T19:52:28.857Z,14.40
2017-10-24T19:54:54.866Z,14.40
2017-10-24T19:57:20.830Z,14.50
2017-10-24T19:59:47.545Z,14.50
2017-10-24T20:02:20.620Z,14.50
2017-10-24T20:04:46.603Z,14.50
2017-10-24T20:07:12.563Z,14.50
2017-10-24T20:09:38.643Z,14.50
2017-10-24T20:12:04.629Z,14.60
2017-10-24T20:14:30.613Z,14.60
2017-10-24T20:16:56.580Z,14.50
2017-10-24T20:19:23.287Z,14.60
2017-10-24T20:21:49.432Z,14.60
2017-10-24T20:24:15.409Z,14.70
2017-10-24T20:26:41.509Z,14.70
2017-10-24T20:29:07.497Z,14.70
2017-10-24T20:31:33.487Z,14.70
2017-10-24T20:33:59.494Z,14.70
2017-10-24T20:36:25.449Z,14.70
2017-10-24T20:38:51.453Z,14.70
2017-10-24T20:41:18.166Z,14.70
2017-10-24T20:43:44.130Z,14.70
2017-10-24T20:46:10.530Z,14.70
2017-10-24T20:48:36.519Z,14.70
2017-10-24T20:51:02.483Z,14.70
2017-10-24T20:53:28.498Z,14.80
2017-10-24T20:55:54.506Z,14.90
2017-10-24T20:58:20.491Z,14.80
2017-10-24T21:00:47.207Z,14.80
2017-10-24T21:03:13.200Z,14.80
2017-10-24T21:05:39.309Z,14.90
2017-10-24T21:08:05.274Z,14.90
2017-10-24T21:10:31.238Z,14.90
2017-10-24T21:12:57.626Z,14.90
2017-10-24T21:15:24.525Z,15.00
2017-10-24T21:17:50.514Z,14.90
2017-10-24T21:20:16.526Z,15.00
2017-10-24T21:22:42.490Z,15.00
2017-10-24T21:25:08.485Z,15.00
2017-10-24T21:27:34.589Z,15.00
2017-10-24T21:30:00.702Z,15.00
2017-10-24T21:32:27.609Z,15.10
2017-10-24T21:34:53.595Z,15.00
2017-10-24T21:37:19.569Z,15.00
2017-10-24T21:39:45.576Z,15.10
2017-10-24T21:42:11.606Z,15.10
2017-10-24T21:44:37.607Z,15.10
2017-10-24T21:47:03.601Z,15.00
2017-10-24T21:49:29.663Z,15.10
2017-10-24T21:51:55.653Z,15.10
2017-10-24T21:54:21.605Z,15.10
2017-10-24T21:56:47.731Z,15.10
2017-10-24T21:59:13.697Z,15.10
2017-10-24T22:01:39.677Z,15.00
2017-10-24T22:04:05.693Z,15.10
2017-10-24T22:06:31.666Z,15.10
2017-10-24T22:09:04.738Z,15.10
2017-10-24T22:11:30.730Z,15.10
2017-10-24T22:13:56.697Z,15.20
2017-10-24T22:16:22.699Z,15.20
2017-10-24T22:18:48.682Z,15.10
2017-10-24T22:21:14.654Z,15.20
2017-10-24T22:23:40.633Z,15.20
2017-10-24T22:26:06.619Z,15.30
2017-10-24T22:28:32.601Z,15.30
2017-10-24T22:30:58.565Z,15.30
2017-10-24T22:33:24.540Z,15.30
2017-10-24T22:35:50.591Z,15.40
2017-10-24T22:38:16.561Z,15.30
2017-10-24T22:40:43.303Z,15.40
2017-10-24T22:43:10.010Z,15.30
2017-10-24T22:45:36.265Z,15.30
2017-10-24T22:48:03.008Z,15.30
2017-10-24T22:50:29.704Z,15.30
2017-10-24T22:52:55.711Z,15.30
2017-10-24T22:55:21.691Z,15.30
2017-10-24T22:57:48.445Z,15.40
2017-10-24T23:00:21.323Z,15.40
2017-10-24T23:02:47.282Z,15.40
2017-10-24T23:05:13.373Z,15.40
2017-10-24T23:07:39.345Z,15.50
2017-10-24T23:10:05.343Z,15.50
2017-10-24T23:12:31.322Z,15.50
2017-10-24T23:14:57.305Z,15.50
2017-10-24T23:17:30.264Z,15.50
2017-10-24T23:19:56.258Z,15.50
2017-10-24T23:22:22.244Z,15.50
2017-10-24T23:24:48.289Z,15.50
2017-10-24T23:27:15.005Z,15.50
2017-10-24T23:29:40.966Z,15.50
2017-10-24T23:32:06.937Z,15.50
2017-10-24T23:34:33.206Z,15.50
2017-10-24T23:36:59.171Z,15.50
2017-10-24T23:39:25.128Z,15.50
2017-10-24T23:41:51.852Z,15.50
2017-10-24T23:44:18.541Z,15.50
2017-10-24T23:46:44.529Z,15.50
2017-10-24T23:49:10.543Z,15.60
2017-10-24T23:51:37.260Z,15.50
2017-10-24T23:54:03.233Z,15.50
2017-10-24T23:56:29.241Z,15.50
2017-10-24T23:58:55.243Z,15.50
